createdAt,value
2022-08-23T00:01:23.874Z,1.80
2022-08-23T00:04:19.653Z,2.70
2022-08-23T00:07:12.959Z,2.30
2022-08-23T00:10:03.709Z,2.10
2022-08-23T00:12:54.795Z,1.80
2022-08-23T00:15:46.089Z,1.90
2022-08-23T00:18:36.214Z,1.90
2022-08-23T00:21:27.318Z,3.40
2022-08-23T00:24:19.164Z,3.30
2022-08-23T00:27:11.349Z,2.30
2022-08-23T00:30:02.045Z,1.90
2022-08-23T00:32:53.118Z,2.40
2022-08-23T00:35:48.557Z,1.80
2022-08-23T00:38:39.340Z,1.90
2022-08-23T00:41:32.658Z,1.80
2022-08-23T00:44:44.701Z,1.90
2022-08-23T00:47:41.512Z,2.00
2022-08-23T00:50:38.413Z,1.80
2022-08-23T00:53:32.795Z,1.80
2022-08-23T00:56:28.782Z,1.70
2022-08-23T00:59:20.381Z,1.90
2022-08-23T01:02:12.690Z,1.80
2022-08-23T01:05:03.669Z,2.00
2022-08-23T01:08:00.794Z,1.80
2022-08-23T01:10:55.810Z,1.70
2022-08-23T01:13:51.505Z,1.80
2022-08-23T01:16:48.028Z,2.00
2022-08-23T01:19:42.190Z,1.70
2022-08-23T01:22:38.537Z,1.60
2022-08-23T01:25:32.530Z,1.90
2022-08-23T01:28:23.057Z,2.10
2022-08-23T01:31:16.930Z,1.90
2022-08-23T01:34:09.426Z,1.80
2022-08-23T01:37:01.719Z,2.00
2022-08-23T01:39:52.907Z,1.70
2022-08-23T01:42:43.767Z,1.80
2022-08-23T01:45:39.852Z,1.90
2022-08-23T01:48:31.713Z,1.90
2022-08-23T01:51:26.419Z,1.70
2022-08-23T01:54:17.000Z,1.80
2022-08-23T01:57:11.305Z,2.20
2022-08-23T02:00:02.734Z,3.00
2022-08-23T02:03:07.979Z,2.10
2022-08-23T02:05:58.776Z,2.00
2022-08-23T02:09:04.536Z,1.90
2022-08-23T02:12:01.483Z,1.70
2022-08-23T02:14:53.184Z,1.80
2022-08-23T02:17:47.829Z,1.60
2022-08-23T02:20:40.349Z,1.80
2022-08-23T02:23:31.238Z,2.00
2022-08-23T02:26:30.913Z,1.70
2022-08-23T02:29:24.357Z,1.70
2022-08-23T02:32:21.019Z,1.90
2022-08-23T02:35:12.024Z,1.90
2022-08-23T02:38:04.539Z,1.90
2022-08-23T02:41:00.839Z,1.60
2022-08-23T02:43:55.462Z,1.90
2022-08-23T02:46:46.980Z,1.80
2022-08-23T02:49:38.500Z,1.80
2022-08-23T02:52:29.297Z,1.60
2022-08-23T02:55:20.301Z,1.80
2022-08-23T02:58:11.354Z,2.10
2022-08-23T03:01:03.130Z,2.00
2022-08-23T03:03:54.508Z,1.70
2022-08-23T03:06:45.499Z,1.60
2022-08-23T03:09:36.708Z,1.90
2022-08-23T03:12:28.375Z,1.80
2022-08-23T03:15:21.818Z,1.70
2022-08-23T03:18:13.424Z,1.80
2022-08-23T03:21:04.323Z,2.10
2022-08-23T03:23:55.391Z,1.90
2022-08-23T03:26:47.722Z,2.00
2022-08-23T03:29:39.669Z,2.20
2022-08-23T03:32:32.593Z,1.80
2022-08-23T03:35:26.895Z,2.00
2022-08-23T03:38:19.823Z,1.90
2022-08-23T03:41:11.441Z,1.90
2022-08-23T03:44:04.910Z,2.00
2022-08-23T03:46:56.972Z,1.90
2022-08-23T03:49:49.270Z,1.90
2022-08-23T03:52:40.108Z,2.10
2022-08-23T03:55:30.703Z,1.90
2022-08-23T03:58:26.147Z,1.90
2022-08-23T04:01:17.395Z,2.10
2022-08-23T04:04:07.587Z,2.30
2022-08-23T04:07:02.822Z,1.90
2022-08-23T04:09:55.337Z,2.00
2022-08-23T04:12:50.180Z,1.80
2022-08-23T04:15:44.358Z,1.90
2022-08-23T04:18:36.731Z,1.90
2022-08-23T04:21:28.230Z,2.10
2022-08-23T04:24:19.579Z,1.90
2022-08-23T04:27:10.695Z,1.90
2022-08-23T04:30:01.187Z,1.90
2022-08-23T04:32:52.188Z,1.90
2022-08-23T04:35:44.835Z,2.00
2022-08-23T04:38:36.452Z,1.80
2022-08-23T04:41:48.996Z,1.60
2022-08-23T04:44:41.727Z,1.90
2022-08-23T04:47:32.115Z,1.80
2022-08-23T04:50:24.451Z,1.80
2022-08-23T04:53:36.741Z,2.00
2022-08-23T04:56:50.924Z,2.00
2022-08-23T04:59:44.517Z,1.90
2022-08-23T05:02:35.168Z,2.00
2022-08-23T05:05:27.329Z,1.70
2022-08-23T05:08:18.588Z,1.90
2022-08-23T05:11:11.086Z,1.80
2022-08-23T05:14:02.992Z,2.10
2022-08-23T05:16:54.098Z,2.60
2022-08-23T05:19:47.069Z,2.00
2022-08-23T05:22:39.821Z,1.90
2022-08-23T05:25:58.802Z,2.20
2022-08-23T05:29:08.692Z,1.90
2022-08-23T05:32:03.724Z,2.00
2022-08-23T05:34:54.510Z,3.10
2022-08-23T05:37:44.799Z,6.80
2022-08-23T05:40:35.246Z,8.10
2022-08-23T05:43:32.528Z,8.30
2022-08-23T05:46:28.492Z,9.90
2022-08-23T05:49:32.626Z,12.30
2022-08-23T05:52:23.206Z,12.70
2022-08-23T05:55:16.519Z,12.80
2022-08-23T05:58:12.315Z,11.70
2022-08-23T06:01:02.768Z,10.00
2022-08-23T06:03:54.605Z,7.80
2022-08-23T06:06:45.732Z,6.90
2022-08-23T06:09:35.874Z,10.60
2022-08-23T06:12:27.207Z,9.80
2022-08-23T06:15:17.822Z,7.60
2022-08-23T06:18:08.001Z,7.00
2022-08-23T06:21:08.215Z,6.40
2022-08-23T06:24:09.667Z,5.90
2022-08-23T06:27:07.544Z,5.50
2022-08-23T06:29:58.165Z,4.10
2022-08-23T06:32:55.453Z,3.60
2022-08-23T06:36:06.604Z,3.50
2022-08-23T06:39:21.974Z,2.70
2022-08-23T06:42:39.149Z,2.60
2022-08-23T06:45:35.248Z,3.10
2022-08-23T06:48:26.902Z,2.50
2022-08-23T06:51:24.296Z,2.20
2022-08-23T06:54:36.656Z,2.40
2022-08-23T06:57:56.678Z,2.30
2022-08-23T07:01:44.634Z,2.30
2022-08-23T07:04:54.212Z,4.60
2022-08-23T07:08:01.604Z,4.20
2022-08-23T07:10:54.676Z,3.20
2022-08-23T07:13:45.532Z,5.80
2022-08-23T07:16:38.398Z,4.60
2022-08-23T07:19:32.554Z,5.20
2022-08-23T07:22:24.953Z,3.20
2022-08-23T07:25:15.140Z,3.10
2022-08-23T07:28:12.469Z,3.00
2022-08-23T07:31:14.749Z,3.40
2022-08-23T07:34:09.455Z,2.60
2022-08-23T07:37:04.349Z,2.40
2022-08-23T07:40:02.443Z,2.10
2022-08-23T07:42:57.883Z,2.20
2022-08-23T07:45:49.663Z,2.20
2022-08-23T07:48:53.878Z,2.20
2022-08-23T07:51:53.245Z,2.00
2022-08-23T07:54:48.566Z,2.10
2022-08-23T07:57:50.853Z,2.80
2022-08-23T08:00:53.898Z,2.60
2022-08-23T08:04:05.707Z,2.60
2022-08-23T08:07:18.318Z,2.60
2022-08-23T08:10:11.836Z,2.40
2022-08-23T08:13:02.204Z,2.90
2022-08-23T08:15:52.598Z,2.30
2022-08-23T08:18:44.073Z,2.50
2022-08-23T08:21:52.785Z,2.30
2022-08-23T08:24:56.494Z,2.60
2022-08-23T08:27:47.801Z,2.80
2022-08-23T08:30:37.798Z,2.70
2022-08-23T08:33:30.682Z,2.60
2022-08-23T08:36:37.124Z,2.50
2022-08-23T08:39:31.750Z,3.00
2022-08-23T08:42:46.756Z,2.60
2022-08-23T08:45:58.590Z,2.50
2022-08-23T08:49:01.376Z,2.40
2022-08-23T08:51:56.500Z,2.70
2022-08-23T08:54:50.138Z,2.50
2022-08-23T08:57:45.957Z,2.60
2022-08-23T09:00:40.273Z,2.80
2022-08-23T09:03:35.546Z,2.60
2022-08-23T09:06:31.827Z,2.80
2022-08-23T09:09:35.364Z,2.50
2022-08-23T09:12:34.043Z,2.70
2022-08-23T09:15:32.182Z,2.80
2022-08-23T09:18:24.427Z,2.80
2022-08-23T09:21:15.951Z,2.60
2022-08-23T09:24:06.595Z,2.70
2022-08-23T09:27:07.747Z,2.50
2022-08-23T09:30:01.661Z,2.60
2022-08-23T09:32:52.346Z,2.30
2022-08-23T09:35:43.710Z,2.60
2022-08-23T09:38:38.687Z,2.40
2022-08-23T09:41:36.686Z,2.40
2022-08-23T09:44:39.390Z,2.50
2022-08-23T09:47:43.259Z,2.30
2022-08-23T09:50:42.364Z,2.50
2022-08-23T09:53:35.806Z,2.40
2022-08-23T09:56:37.061Z,2.30
2022-08-23T09:59:39.572Z,2.40
2022-08-23T10:02:36.409Z,2.30
2022-08-23T10:05:42.263Z,2.10
2022-08-23T10:08:43.506Z,2.20
2022-08-23T10:11:37.437Z,2.40
2022-08-23T10:14:30.531Z,2.70
2022-08-23T10:17:34.334Z,2.50
2022-08-23T10:20:39.319Z,2.40
2022-08-23T10:23:39.120Z,2.50
2022-08-23T10:26:35.282Z,2.50
2022-08-23T10:29:41.593Z,2.60
2022-08-23T10:32:47.909Z,2.50
2022-08-23T10:35:46.591Z,2.60
2022-08-23T10:38:48.691Z,2.90
2022-08-23T10:41:52.346Z,2.30
2022-08-23T10:44:51.154Z,2.60
2022-08-23T10:47:58.964Z,2.70
2022-08-23T10:50:55.679Z,2.60
2022-08-23T10:53:50.966Z,2.30
2022-08-23T10:56:51.234Z,2.10
2022-08-23T10:59:43.712Z,2.80
2022-08-23T11:02:45.464Z,2.60
2022-08-23T11:06:41.296Z,2.50
2022-08-23T11:09:54.726Z,2.50
2022-08-23T11:12:59.471Z,2.60
2022-08-23T11:16:00.922Z,2.40
2022-08-23T11:18:52.947Z,2.30
2022-08-23T11:21:51.214Z,2.30
2022-08-23T11:24:58.215Z,2.20
2022-08-23T11:27:49.439Z,2.60
2022-08-23T11:30:49.903Z,2.30
2022-08-23T11:33:50.987Z,2.60
2022-08-23T11:37:04.571Z,2.50
2022-08-23T11:40:18.002Z,2.60
2022-08-23T11:43:13.797Z,2.30
2022-08-23T11:46:33.282Z,2.30
2022-08-23T11:50:01.473Z,2.60
2022-08-23T11:53:05.226Z,2.30
2022-08-23T11:56:11.613Z,2.50
2022-08-23T11:59:15.522Z,2.50
2022-08-23T12:02:47.550Z,2.50
2022-08-23T12:06:07.407Z,2.80
2022-08-23T12:09:02.228Z,2.40
2022-08-23T12:12:12.298Z,2.40
2022-08-23T12:15:13.103Z,2.40
2022-08-23T12:18:23.853Z,2.40
2022-08-23T12:21:22.499Z,2.30
2022-08-23T12:24:21.048Z,2.70
2022-08-23T12:27:24.026Z,2.30
2022-08-23T12:30:22.495Z,2.40
2022-08-23T12:33:24.747Z,2.40
2022-08-23T12:36:24.272Z,2.40
2022-08-23T12:39:25.878Z,2.40
2022-08-23T12:42:19.984Z,2.30
2022-08-23T12:45:16.062Z,2.30
2022-08-23T12:48:08.340Z,2.30
2022-08-23T12:51:01.255Z,2.40
2022-08-23T12:53:54.203Z,2.50
2022-08-23T12:56:50.819Z,2.20
2022-08-23T12:59:49.217Z,2.10
2022-08-23T13:02:40.224Z,2.10
2022-08-23T13:05:45.918Z,2.10
2022-08-23T13:08:39.975Z,2.10
2022-08-23T13:11:34.134Z,1.90
2022-08-23T13:14:37.626Z,1.90
2022-08-23T13:17:39.727Z,1.90
2022-08-23T13:20:29.648Z,1.90
2022-08-23T13:23:31.050Z,2.10
2022-08-23T13:26:35.441Z,1.90
2022-08-23T13:29:26.511Z,2.10
2022-08-23T13:32:30.991Z,2.10
2022-08-23T13:35:41.375Z,2.10
2022-08-23T13:38:34.121Z,2.30
2022-08-23T13:41:38.410Z,2.00
2022-08-23T13:44:31.643Z,2.00
2022-08-23T13:47:27.764Z,2.30
2022-08-23T13:50:24.851Z,2.00
2022-08-23T13:53:15.685Z,1.90
2022-08-23T13:56:06.222Z,2.00
2022-08-23T13:59:00.388Z,2.10
2022-08-23T14:01:50.850Z,2.40
2022-08-23T14:04:42.337Z,2.10
2022-08-23T14:07:32.795Z,2.10
2022-08-23T14:10:23.806Z,2.10
2022-08-23T14:13:18.161Z,2.30
2022-08-23T14:22:32.714Z,2.20
2022-08-23T14:25:23.700Z,2.20
2022-08-23T14:28:14.050Z,2.30
2022-08-23T14:31:04.873Z,2.10
2022-08-23T14:33:57.754Z,2.10
2022-08-23T14:40:05.308Z,2.10
2022-08-23T14:42:56.573Z,2.30
2022-08-23T14:45:47.128Z,2.00
2022-08-23T14:48:39.847Z,2.20
2022-08-23T14:51:34.137Z,2.40
2022-08-23T14:54:28.514Z,2.40
2022-08-23T14:57:21.902Z,2.20
2022-08-23T15:00:15.474Z,2.20
2022-08-23T15:03:10.223Z,2.40
2022-08-23T15:06:03.657Z,2.20
2022-08-23T15:08:53.698Z,2.40
2022-08-23T15:14:53.567Z,2.00
2022-08-23T15:17:48.950Z,2.10
2022-08-23T15:20:40.066Z,2.40
2022-08-23T15:23:32.595Z,2.10
2022-08-23T15:26:27.218Z,2.30
2022-08-23T15:29:19.063Z,2.30
2022-08-23T15:32:10.567Z,2.10
2022-08-23T15:35:02.907Z,2.00
2022-08-23T15:37:54.552Z,2.20
2022-08-23T15:40:45.786Z,2.30
2022-08-23T15:43:39.212Z,2.20
2022-08-23T15:46:29.656Z,2.30
2022-08-23T15:49:21.785Z,2.40
2022-08-23T15:52:12.405Z,2.20
2022-08-23T15:55:03.948Z,2.30
2022-08-23T15:57:58.138Z,2.30
2022-08-23T16:00:49.156Z,2.30
2022-08-23T16:03:42.537Z,2.30
2022-08-23T16:06:38.187Z,2.10
2022-08-23T16:09:29.800Z,2.10
2022-08-23T16:12:20.638Z,2.50
2022-08-23T16:15:12.037Z,2.10
2022-08-23T16:18:02.817Z,2.20
2022-08-23T16:20:54.134Z,2.20
2022-08-23T16:23:45.308Z,2.20
2022-08-23T16:26:39.014Z,2.10
2022-08-23T16:29:34.878Z,2.30
2022-08-23T16:32:24.817Z,2.10
2022-08-23T16:35:14.503Z,2.30
2022-08-23T16:38:05.304Z,2.00
2022-08-23T16:40:55.235Z,2.20
2022-08-23T16:43:46.083Z,2.10
2022-08-23T16:46:37.489Z,2.30
2022-08-23T16:49:28.514Z,2.20
2022-08-23T16:52:19.179Z,2.50
2022-08-23T16:55:15.459Z,2.00
2022-08-23T16:58:05.621Z,2.20
2022-08-23T17:00:57.243Z,3.10
2022-08-23T17:03:49.366Z,2.60
2022-08-23T17:06:40.107Z,2.30
2022-08-23T17:09:31.365Z,2.30
2022-08-23T17:12:22.420Z,2.80
2022-08-23T17:15:15.682Z,2.10
2022-08-23T17:18:12.021Z,2.40
2022-08-23T17:21:02.908Z,2.20
2022-08-23T17:23:53.121Z,2.30
2022-08-23T17:26:49.787Z,2.20
2022-08-23T17:29:41.584Z,2.20
2022-08-23T17:32:31.407Z,2.30
2022-08-23T17:35:23.886Z,3.00
2022-08-23T17:38:17.245Z,3.90
2022-08-23T17:41:07.378Z,2.80
2022-08-23T17:43:58.257Z,2.50
2022-08-23T17:46:51.476Z,2.20
2022-08-23T17:49:41.925Z,2.60
2022-08-23T17:52:32.498Z,2.80
2022-08-23T17:55:22.890Z,2.60
2022-08-23T17:58:14.284Z,3.20
2022-08-23T18:01:04.872Z,3.30
2022-08-23T18:03:55.319Z,3.00
2022-08-23T18:06:45.244Z,2.80
2022-08-23T18:09:40.039Z,2.70
2022-08-23T18:12:39.015Z,3.40
2022-08-23T18:15:30.149Z,2.80
2022-08-23T18:18:21.504Z,2.90
2022-08-23T18:21:13.922Z,2.50
2022-08-23T18:24:04.711Z,2.50
2022-08-23T18:27:12.341Z,2.30
2022-08-23T18:30:03.553Z,2.30
2022-08-23T18:32:54.537Z,2.30
2022-08-23T18:35:45.592Z,2.00
2022-08-23T18:38:36.321Z,2.70
2022-08-23T18:41:26.982Z,2.40
2022-08-23T18:44:17.474Z,2.20
2022-08-23T18:47:08.066Z,2.10
2022-08-23T18:49:57.649Z,2.00
2022-08-23T18:52:47.338Z,2.20
2022-08-23T18:55:38.320Z,2.40
2022-08-23T18:58:31.133Z,4.10
2022-08-23T19:01:27.618Z,2.60
2022-08-23T19:04:17.715Z,2.40
2022-08-23T19:07:08.342Z,2.60
2022-08-23T19:09:58.765Z,2.00
2022-08-23T19:12:51.886Z,2.20
2022-08-23T19:15:47.398Z,2.30
2022-08-23T19:18:37.629Z,1.90
2022-08-23T19:21:28.624Z,2.10
2022-08-23T19:24:24.056Z,2.20
2022-08-23T19:27:15.119Z,4.30
2022-08-23T19:30:06.572Z,3.30
2022-08-23T19:32:57.563Z,3.10
2022-08-23T19:35:49.306Z,2.70
2022-08-23T19:38:42.397Z,2.40
2022-08-23T19:41:34.076Z,2.20
2022-08-23T19:44:24.944Z,2.00
2022-08-23T19:47:20.207Z,1.90
2022-08-23T19:50:12.466Z,1.80
2022-08-23T19:53:03.826Z,1.80
2022-08-23T19:55:53.999Z,1.80
2022-08-23T19:58:45.494Z,1.90
2022-08-23T20:01:36.138Z,1.90
2022-08-23T20:04:28.322Z,1.80
2022-08-23T20:07:18.147Z,1.80
2022-08-23T20:10:10.132Z,1.90
2022-08-23T20:13:01.179Z,1.80
2022-08-23T20:15:56.100Z,2.00
2022-08-23T20:18:51.640Z,2.10
2022-08-23T20:21:42.889Z,2.20
2022-08-23T20:24:50.833Z,2.10
2022-08-23T20:27:45.103Z,2.10
2022-08-23T20:30:35.782Z,2.40
2022-08-23T20:33:25.747Z,2.40
2022-08-23T20:36:16.856Z,2.50
2022-08-23T20:39:08.131Z,2.20
2022-08-23T20:41:58.002Z,2.20
2022-08-23T20:44:48.668Z,2.20
2022-08-23T20:47:40.890Z,2.30
2022-08-23T20:50:31.044Z,2.20
2022-08-23T20:53:23.715Z,2.40
2022-08-23T20:56:13.695Z,2.10
2022-08-23T20:59:04.013Z,2.10
2022-08-23T21:01:53.777Z,2.30
2022-08-23T21:04:43.932Z,2.10
2022-08-23T21:07:34.493Z,2.20
2022-08-23T21:10:27.021Z,2.10
2022-08-23T21:13:20.279Z,2.10
2022-08-23T21:16:11.726Z,2.50
2022-08-23T21:19:01.603Z,4.10
2022-08-23T21:21:52.604Z,2.60
2022-08-23T21:24:43.481Z,2.20
2022-08-23T21:27:33.486Z,2.20
2022-08-23T21:30:23.599Z,2.10
2022-08-23T21:33:14.456Z,2.10
2022-08-23T21:36:05.218Z,2.10
2022-08-23T21:38:56.240Z,1.90
2022-08-23T21:41:49.479Z,3.90
2022-08-23T21:44:39.813Z,3.20
2022-08-23T21:47:30.692Z,2.10
2022-08-23T21:50:21.441Z,2.10
2022-08-23T21:53:17.720Z,3.80
2022-08-23T21:56:07.864Z,2.50
2022-08-23T21:59:02.271Z,2.20
2022-08-23T22:01:53.349Z,1.90
2022-08-23T22:04:50.469Z,2.00
2022-08-23T22:07:41.577Z,2.20
2022-08-23T22:10:31.779Z,1.90
2022-08-23T22:13:22.474Z,2.00
2022-08-23T22:16:13.695Z,2.00
2022-08-23T22:19:04.868Z,2.10
2022-08-23T22:21:54.968Z,2.00
2022-08-23T22:24:44.954Z,2.00
2022-08-23T22:27:36.446Z,1.90
2022-08-23T22:30:27.640Z,2.30
2022-08-23T22:33:20.537Z,1.90
2022-08-23T22:36:18.290Z,2.00
2022-08-23T22:39:10.545Z,2.20
2022-08-23T22:42:03.051Z,2.00
2022-08-23T22:44:56.964Z,2.10
2022-08-23T22:47:49.227Z,2.10
2022-08-23T22:50:40.431Z,2.10
2022-08-23T22:53:30.626Z,2.90
2022-08-23T22:56:23.038Z,2.90
2022-08-23T22:59:14.446Z,2.20
2022-08-23T23:02:07.109Z,2.20
2022-08-23T23:04:59.144Z,2.20
2022-08-23T23:08:06.735Z,2.20
2022-08-23T23:10:57.401Z,2.10
2022-08-23T23:13:48.099Z,2.20
2022-08-23T23:16:39.955Z,2.00
2022-08-23T23:19:47.181Z,2.10
2022-08-23T23:22:37.578Z,1.80
2022-08-23T23:25:28.202Z,2.00
2022-08-23T23:28:23.030Z,2.00
2022-08-23T23:31:13.836Z,2.30
2022-08-23T23:34:06.175Z,1.90
2022-08-23T23:36:58.668Z,3.20
2022-08-23T23:39:50.173Z,3.50
2022-08-23T23:42:40.903Z,2.40
2022-08-23T23:45:32.012Z,2.20
2022-08-23T23:48:23.222Z,2.20
2022-08-23T23:51:16.310Z,1.90
2022-08-23T23:54:07.474Z,1.90
2022-08-23T23:56:58.258Z,1.80
2022-08-23T23:59:48.919Z,1.80
